createdAt,value
2023-07-20T00:00:06.497Z,7.60
2023-07-20T00:02:45.630Z,7.17
2023-07-20T00:05:12.273Z,6.20
2023-07-20T00:07:38.989Z,8.13
2023-07-20T00:10:05.971Z,7.50
2023-07-20T00:12:32.969Z,8.30
2023-07-20T00:14:59.582Z,6.30
2023-07-20T00:17:26.354Z,6.87
2023-07-20T00:19:53.051Z,7.83
2023-07-20T00:22:19.917Z,7.37
2023-07-20T00:24:46.500Z,7.70
2023-07-20T00:27:13.229Z,8.60
2023-07-20T00:29:39.892Z,7.40
2023-07-20T00:32:07.524Z,7.07
2023-07-20T00:34:34.570Z,7.73
2023-07-20T00:37:01.340Z,6.83
2023-07-20T00:39:28.199Z,7.00
2023-07-20T00:41:55.125Z,6.73
2023-07-20T00:44:21.872Z,7.47
2023-07-20T00:46:49.066Z,7.63
2023-07-20T00:49:16.525Z,7.57
2023-07-20T00:51:43.525Z,7.20
2023-07-20T00:54:10.405Z,6.83
2023-07-20T00:56:37.259Z,7.53
2023-07-20T00:59:04.198Z,7.83
2023-07-20T01:01:31.210Z,6.57
2023-07-20T01:03:57.905Z,7.20
2023-07-20T01:06:31.053Z,7.80
2023-07-20T01:09:07.065Z,8.50
2023-07-20T01:11:40.639Z,6.13
2023-07-20T01:14:07.889Z,6.63
2023-07-20T01:16:35.388Z,9.13
2023-07-20T01:19:01.971Z,9.00
2023-07-20T01:21:36.191Z,6.73
2023-07-20T01:24:11.678Z,8.03
2023-07-20T01:27:03.142Z,7.63
2023-07-20T01:30:25.201Z,6.20
2023-07-20T01:32:56.128Z,7.20
2023-07-20T01:35:25.092Z,13.20
2023-07-20T01:37:52.090Z,8.83
2023-07-20T01:40:19.097Z,7.50
2023-07-20T01:42:47.535Z,9.30
2023-07-20T01:45:14.146Z,7.83
2023-07-20T01:47:41.256Z,7.20
2023-07-20T01:50:08.964Z,7.30
2023-07-20T01:52:35.707Z,7.97
2023-07-20T01:55:02.592Z,7.47
2023-07-20T01:57:29.202Z,7.07
2023-07-20T01:59:56.047Z,7.10
2023-07-20T02:02:25.201Z,8.13
2023-07-20T02:04:51.849Z,8.30
2023-07-20T02:07:18.559Z,8.33
2023-07-20T02:09:45.198Z,6.93
2023-07-20T02:12:12.029Z,7.73
2023-07-20T02:14:38.732Z,7.30
2023-07-20T02:17:05.565Z,7.40
2023-07-20T02:19:32.509Z,7.40
2023-07-20T02:21:59.566Z,8.13
2023-07-20T02:24:27.020Z,6.50
2023-07-20T02:26:53.558Z,8.20
2023-07-20T02:29:20.312Z,6.87
2023-07-20T02:31:46.969Z,6.60
2023-07-20T02:34:13.936Z,6.23
2023-07-20T02:36:40.745Z,6.77
2023-07-20T02:39:08.087Z,7.63
2023-07-20T02:41:34.926Z,8.10
2023-07-20T02:44:02.616Z,6.80
2023-07-20T02:46:31.407Z,7.23
2023-07-20T02:48:58.161Z,6.17
2023-07-20T02:51:24.829Z,6.70
2023-07-20T02:53:51.728Z,5.87
2023-07-20T02:56:19.319Z,7.20
2023-07-20T02:58:47.235Z,7.20
2023-07-20T03:01:14.458Z,7.67
2023-07-20T03:03:41.519Z,7.60
2023-07-20T03:06:10.222Z,7.27
2023-07-20T03:08:37.302Z,8.50
2023-07-20T03:11:04.399Z,8.13
2023-07-20T03:13:31.156Z,6.43
2023-07-20T03:15:57.972Z,7.27
2023-07-20T03:18:24.539Z,7.07
2023-07-20T03:20:51.196Z,8.10
2023-07-20T03:23:17.974Z,7.37
2023-07-20T03:25:44.873Z,7.53
2023-07-20T03:28:11.496Z,7.63
2023-07-20T03:30:38.146Z,7.20
2023-07-20T03:33:05.394Z,6.90
2023-07-20T03:35:32.271Z,6.80
2023-07-20T03:37:59.150Z,8.70
2023-07-20T03:40:26.261Z,7.67
2023-07-20T03:42:53.354Z,7.80
2023-07-20T03:45:20.009Z,6.90
2023-07-20T03:47:48.405Z,8.90
2023-07-20T03:50:15.119Z,7.70
2023-07-20T03:52:41.692Z,6.73
2023-07-20T03:55:09.192Z,6.50
2023-07-20T03:57:35.799Z,7.70
2023-07-20T04:00:02.826Z,7.40
2023-07-20T04:02:29.536Z,6.70
2023-07-20T04:04:56.461Z,7.70
2023-07-20T04:07:22.996Z,7.40
2023-07-20T04:09:49.744Z,6.40
2023-07-20T04:12:16.277Z,8.00
2023-07-20T04:14:43.606Z,6.53
2023-07-20T04:17:13.502Z,7.60
2023-07-20T04:19:40.408Z,6.83
2023-07-20T04:22:06.984Z,6.93
2023-07-20T04:24:33.768Z,6.97
2023-07-20T04:27:00.487Z,7.70
2023-07-20T04:29:27.002Z,7.10
2023-07-20T04:31:53.867Z,7.17
2023-07-20T04:34:20.576Z,7.97
2023-07-20T04:36:47.564Z,7.27
2023-07-20T04:39:21.973Z,7.70
2023-07-20T04:41:58.415Z,7.60
2023-07-20T04:44:25.577Z,6.87
2023-07-20T04:46:52.238Z,7.07
2023-07-20T04:49:19.081Z,6.80
2023-07-20T04:51:47.086Z,6.93
2023-07-20T04:54:14.943Z,7.43
2023-07-20T04:56:41.989Z,8.00
2023-07-20T04:59:08.534Z,7.07
2023-07-20T05:01:35.186Z,6.90
2023-07-20T05:04:02.088Z,7.60
2023-07-20T05:06:28.610Z,6.57
2023-07-20T05:08:55.304Z,7.27
2023-07-20T05:11:22.089Z,8.40
2023-07-20T05:13:48.740Z,6.90
2023-07-20T05:16:15.501Z,6.47
2023-07-20T05:18:42.502Z,8.03
2023-07-20T05:21:09.287Z,6.70
2023-07-20T05:23:35.987Z,7.33
2023-07-20T05:26:02.679Z,7.50
2023-07-20T05:28:29.419Z,7.03
2023-07-20T05:30:56.384Z,6.70
2023-07-20T05:33:23.233Z,7.43
2023-07-20T05:35:49.841Z,6.93
2023-07-20T05:38:16.499Z,8.33
2023-07-20T05:40:44.059Z,7.17
2023-07-20T05:43:10.875Z,6.90
2023-07-20T05:45:37.462Z,7.97
2023-07-20T05:48:04.476Z,8.00
2023-07-20T05:50:31.070Z,8.23
2023-07-20T05:52:57.717Z,9.50
2023-07-20T05:55:24.287Z,9.10
2023-07-20T05:57:51.285Z,10.70
2023-07-20T06:00:20.375Z,11.20
2023-07-20T06:02:49.082Z,10.70
2023-07-20T06:05:16.470Z,10.80
2023-07-20T06:07:43.333Z,12.23
2023-07-20T06:10:10.208Z,9.83
2023-07-20T06:12:36.975Z,10.77
2023-07-20T06:15:08.035Z,11.97
2023-07-20T06:17:34.713Z,9.17
2023-07-20T06:20:01.354Z,9.10
2023-07-20T06:22:28.082Z,7.90
2023-07-20T06:24:54.843Z,10.40
2023-07-20T06:27:21.443Z,8.90
2023-07-20T06:29:48.371Z,7.63
2023-07-20T06:32:15.307Z,8.07
2023-07-20T06:34:41.816Z,7.20
2023-07-20T06:37:08.517Z,7.47
2023-07-20T06:42:04.866Z,7.47
2023-07-20T06:44:31.399Z,6.13
2023-07-20T06:46:58.181Z,5.37
2023-07-20T06:49:26.460Z,6.40
2023-07-20T06:51:53.313Z,6.80
2023-07-20T06:54:23.696Z,5.90
2023-07-20T06:57:16.799Z,6.17
2023-07-20T06:59:41.440Z,5.70
2023-07-20T07:02:14.594Z,6.20
2023-07-20T07:04:43.140Z,6.63
2023-07-20T07:07:10.994Z,6.40
2023-07-20T07:09:38.101Z,6.50
2023-07-20T07:12:05.434Z,6.93
2023-07-20T07:14:33.263Z,5.87
2023-07-20T07:17:05.155Z,6.50
2023-07-20T07:19:32.465Z,5.80
2023-07-20T07:22:00.858Z,6.10
2023-07-20T07:24:29.817Z,5.30
2023-07-20T07:26:57.223Z,7.13
2023-07-20T07:29:23.966Z,5.93
2023-07-20T07:31:50.491Z,5.70
2023-07-20T07:34:17.213Z,5.80
2023-07-20T07:36:44.592Z,5.87
2023-07-20T07:41:41.189Z,6.07
2023-07-20T07:44:07.992Z,5.23
2023-07-20T07:46:35.135Z,5.20
2023-07-20T07:49:02.142Z,6.10
2023-07-20T07:51:29.571Z,5.77
2023-07-20T07:53:56.508Z,6.33
2023-07-20T07:56:24.731Z,5.07
2023-07-20T07:58:53.011Z,7.50
2023-07-20T08:01:23.572Z,6.97
2023-07-20T08:03:50.663Z,5.23
2023-07-20T08:06:17.425Z,5.83
2023-07-20T08:08:44.361Z,5.47
2023-07-20T08:11:11.245Z,6.30
2023-07-20T08:13:38.778Z,5.83
2023-07-20T08:16:05.700Z,5.20
2023-07-20T08:18:32.660Z,5.60
2023-07-20T08:20:59.761Z,5.00
2023-07-20T08:23:27.156Z,5.50
2023-07-20T08:25:53.900Z,4.27
2023-07-20T08:28:20.704Z,5.33
2023-07-20T08:30:49.194Z,5.27
2023-07-20T08:33:16.907Z,6.50
2023-07-20T08:35:44.645Z,4.77
2023-07-20T08:38:11.239Z,3.90
2023-07-20T08:40:42.641Z,5.33
2023-07-20T08:43:10.896Z,4.63
2023-07-20T08:45:39.602Z,4.33
2023-07-20T08:48:07.538Z,5.83
2023-07-20T08:50:35.645Z,4.77
2023-07-20T08:53:03.297Z,5.83
2023-07-20T08:55:31.777Z,4.27
2023-07-20T08:57:59.907Z,5.27
2023-07-20T09:00:28.019Z,5.17
2023-07-20T09:02:56.557Z,4.50
2023-07-20T09:05:26.198Z,4.80
2023-07-20T09:07:54.346Z,4.60
2023-07-20T09:10:23.020Z,4.93
2023-07-20T09:12:50.559Z,3.57
2023-07-20T09:15:18.526Z,4.57
2023-07-20T09:17:49.743Z,4.50
2023-07-20T09:20:21.361Z,4.20
2023-07-20T09:22:50.979Z,5.13
2023-07-20T09:25:22.501Z,4.10
2023-07-20T09:27:52.250Z,5.00
2023-07-20T09:30:19.458Z,4.23
2023-07-20T09:32:54.919Z,3.60
2023-07-20T09:50:45.610Z,5.43
2023-07-20T09:53:14.535Z,4.37
2023-07-20T09:55:43.132Z,5.30
2023-07-20T09:58:11.062Z,4.20
2023-07-20T10:03:10.570Z,4.50
2023-07-20T10:05:41.253Z,4.50
2023-07-20T10:13:27.990Z,4.20
2023-07-20T10:16:05.640Z,5.20
2023-07-20T10:19:00.883Z,4.00
2023-07-20T10:23:58.702Z,5.00
2023-07-20T10:26:26.833Z,4.57
2023-07-20T10:28:54.059Z,4.60
2023-07-20T10:31:21.280Z,4.70
2023-07-20T10:33:48.030Z,4.30
2023-07-20T10:36:14.679Z,4.60
2023-07-20T10:38:59.558Z,4.53
2023-07-20T10:41:31.291Z,3.73
2023-07-20T10:44:09.247Z,4.87
2023-07-20T10:46:46.483Z,5.97
2023-07-20T10:49:16.024Z,5.93
2023-07-20T10:51:49.045Z,6.13
2023-07-20T10:54:18.970Z,4.40
2023-07-20T10:56:49.199Z,5.30
2023-07-20T10:59:25.333Z,4.10
2023-07-20T11:01:56.718Z,4.03
2023-07-20T11:04:59.278Z,4.50
2023-07-20T11:07:42.898Z,4.70
2023-07-20T11:10:20.298Z,4.27
2023-07-20T11:13:26.382Z,5.00
2023-07-20T11:15:59.003Z,5.03
2023-07-20T11:18:28.457Z,4.67
2023-07-20T11:20:55.293Z,4.10
2023-07-20T11:23:22.630Z,5.47
2023-07-20T11:25:50.682Z,5.80
2023-07-20T11:28:17.562Z,4.03
2023-07-20T11:30:44.460Z,4.50
2023-07-20T11:33:11.109Z,4.90
2023-07-20T11:35:48.093Z,4.93
2023-07-20T11:38:15.027Z,4.20
2023-07-20T11:40:47.829Z,4.80
2023-07-20T11:45:46.522Z,4.80
2023-07-20T11:48:19.282Z,5.10
2023-07-20T11:50:46.018Z,5.50
2023-07-20T11:53:13.417Z,5.40
2023-07-20T11:55:41.963Z,5.97
2023-07-20T11:58:10.188Z,5.93
2023-07-20T12:00:40.265Z,5.47
2023-07-20T12:03:11.745Z,5.13
2023-07-20T12:06:00.017Z,5.40
2023-07-20T12:08:26.683Z,5.37
2023-07-20T12:10:53.312Z,4.93
2023-07-20T12:13:20.090Z,5.03
2023-07-20T12:15:46.758Z,5.30
2023-07-20T12:18:13.507Z,4.50
2023-07-20T12:20:40.949Z,4.50
2023-07-20T12:23:12.676Z,4.03
2023-07-20T12:25:44.008Z,5.67
2023-07-20T12:28:15.354Z,4.60
2023-07-20T12:30:43.264Z,6.37
2023-07-20T12:33:10.212Z,5.03
2023-07-20T12:35:37.067Z,4.80
2023-07-20T12:38:03.981Z,4.33
2023-07-20T12:40:30.904Z,5.00
2023-07-20T12:42:58.719Z,5.00
2023-07-20T12:45:25.586Z,4.80
2023-07-20T12:47:52.193Z,4.67
2023-07-20T12:50:19.100Z,4.97
2023-07-20T12:52:45.742Z,5.33
2023-07-20T12:55:12.472Z,5.03
2023-07-20T12:57:39.645Z,4.03
2023-07-20T13:00:09.420Z,4.90
2023-07-20T13:02:37.028Z,4.80
2023-07-20T13:05:04.696Z,5.83
2023-07-20T13:10:10.035Z,4.90
2023-07-20T13:12:37.755Z,4.53
2023-07-20T13:15:09.241Z,5.07
2023-07-20T13:17:36.941Z,4.03
2023-07-20T13:20:05.793Z,4.90
2023-07-20T13:22:32.624Z,4.67
2023-07-20T13:24:59.537Z,4.57
2023-07-20T13:27:29.391Z,4.60
2023-07-20T13:29:58.136Z,4.57
2023-07-20T13:32:25.326Z,4.30
2023-07-20T13:34:51.951Z,4.07
2023-07-20T13:37:18.904Z,4.57
2023-07-20T13:39:45.963Z,4.90
2023-07-20T13:42:14.000Z,4.30
2023-07-20T13:44:40.668Z,5.27
2023-07-20T13:54:47.995Z,4.77
2023-07-20T13:57:16.520Z,4.03
2023-07-20T13:59:44.157Z,4.40
2023-07-20T14:04:41.268Z,5.00
2023-07-20T14:07:08.185Z,4.80
2023-07-20T14:09:35.125Z,4.53
2023-07-20T14:14:32.007Z,4.00
2023-07-20T14:16:58.606Z,3.80
2023-07-20T14:19:25.315Z,4.00
2023-07-20T14:21:51.977Z,4.53
2023-07-20T14:24:19.700Z,4.63
2023-07-20T14:26:48.734Z,4.93
2023-07-20T14:29:17.027Z,5.23
2023-07-20T14:31:43.718Z,4.60
2023-07-20T14:34:10.647Z,6.00
2023-07-20T14:36:37.400Z,4.90
2023-07-20T14:39:04.105Z,4.60
2023-07-20T14:41:30.741Z,4.70
2023-07-20T14:43:58.442Z,4.87
2023-07-20T14:46:25.761Z,4.40
2023-07-20T14:48:53.226Z,4.20
2023-07-20T14:51:20.181Z,5.00
2023-07-20T14:53:46.674Z,4.40
2023-07-20T14:56:13.441Z,4.17
2023-07-20T14:58:40.000Z,5.10
2023-07-20T15:01:06.624Z,4.53
2023-07-20T15:03:33.535Z,3.83
2023-07-20T15:06:00.239Z,4.57
2023-07-20T15:08:26.882Z,4.60
2023-07-20T15:10:53.760Z,3.90
2023-07-20T15:13:20.290Z,5.20
2023-07-20T15:15:46.985Z,5.33
2023-07-20T15:18:13.825Z,3.90
2023-07-20T15:20:40.556Z,4.80
2023-07-20T15:23:07.440Z,5.40
2023-07-20T15:25:34.104Z,4.57
2023-07-20T15:28:00.875Z,3.90
2023-07-20T15:35:27.738Z,4.97
2023-07-20T15:37:54.318Z,6.03
2023-07-20T15:40:21.108Z,4.60
2023-07-20T15:45:18.393Z,4.53
2023-07-20T15:47:45.417Z,4.90
2023-07-20T15:50:13.717Z,4.47
2023-07-20T15:52:43.125Z,5.10
2023-07-20T15:55:10.104Z,4.37
2023-07-20T15:57:36.877Z,4.40
2023-07-20T16:00:06.726Z,5.33
2023-07-20T16:02:34.159Z,4.30
2023-07-20T16:05:14.436Z,5.53
2023-07-20T16:07:44.692Z,4.30
2023-07-20T16:10:11.798Z,4.93
2023-07-20T16:12:39.587Z,4.03
2023-07-20T16:15:09.004Z,4.03
2023-07-20T16:17:35.848Z,4.73
2023-07-20T16:20:02.631Z,4.43
2023-07-20T16:22:29.213Z,6.03
2023-07-20T16:24:55.927Z,5.67
2023-07-20T16:27:22.553Z,4.87
2023-07-20T16:29:49.122Z,5.30
2023-07-20T16:32:15.873Z,5.83
2023-07-20T16:42:13.426Z,4.40
2023-07-20T16:44:41.161Z,5.13
2023-07-20T16:47:10.108Z,5.47
2023-07-20T16:49:38.136Z,5.17
2023-07-20T16:52:05.056Z,4.33
2023-07-20T16:54:31.635Z,4.37
2023-07-20T16:56:58.242Z,4.30
2023-07-20T16:59:24.854Z,5.07
2023-07-20T17:01:53.496Z,6.03
2023-07-20T17:04:20.289Z,5.20
2023-07-20T17:06:49.928Z,5.63
2023-07-20T17:09:17.345Z,4.90
2023-07-20T17:11:44.381Z,4.93
2023-07-20T17:14:13.903Z,5.20
2023-07-20T17:16:40.444Z,5.13
2023-07-20T17:19:10.923Z,4.97
2023-07-20T17:21:37.840Z,6.87
2023-07-20T17:24:05.078Z,5.23
2023-07-20T17:29:02.914Z,6.50
2023-07-20T17:31:30.072Z,5.63
2023-07-20T17:33:57.013Z,4.83
2023-07-20T17:38:53.245Z,5.57
2023-07-20T17:41:19.816Z,4.87
2023-07-20T17:43:46.555Z,5.33
2023-07-20T17:48:42.988Z,5.70
2023-07-20T17:51:09.858Z,5.03
2023-07-20T17:53:36.500Z,6.07
2023-07-20T17:56:03.451Z,5.53
2023-07-20T17:58:31.389Z,5.23
2023-07-20T18:01:01.840Z,5.03
2023-07-20T18:03:29.057Z,6.27
2023-07-20T18:05:57.162Z,5.07
2023-07-20T18:08:24.520Z,5.27
2023-07-20T18:10:51.312Z,4.77
2023-07-20T18:13:18.870Z,4.90
2023-07-20T18:15:45.557Z,4.70
2023-07-20T18:18:12.386Z,5.17
2023-07-20T18:20:39.026Z,4.80
2023-07-20T18:23:05.630Z,4.90
2023-07-20T18:25:32.314Z,5.63
2023-07-20T18:27:58.905Z,4.63
2023-07-20T18:30:28.025Z,4.60
2023-07-20T18:32:54.648Z,5.70
2023-07-20T18:35:21.232Z,6.87
2023-07-20T18:37:49.570Z,5.80
2023-07-20T18:40:16.452Z,4.60
2023-07-20T18:42:43.214Z,4.60
2023-07-20T18:45:10.235Z,5.60
2023-07-20T18:47:36.887Z,4.67
2023-07-20T18:50:03.783Z,5.30
2023-07-20T18:52:30.404Z,5.57
2023-07-20T18:54:57.244Z,4.93
2023-07-20T18:57:25.633Z,5.40
2023-07-20T18:59:52.748Z,4.60
2023-07-20T19:02:20.636Z,5.83
2023-07-20T19:04:47.415Z,5.03
2023-07-20T19:07:15.787Z,5.50
2023-07-20T19:09:42.448Z,5.20
2023-07-20T19:12:10.272Z,10.37
2023-07-20T19:14:37.093Z,9.17
2023-07-20T19:17:05.602Z,9.20
2023-07-20T19:19:33.022Z,9.00
2023-07-20T19:22:00.034Z,5.67
2023-07-20T19:24:26.756Z,6.73
2023-07-20T19:26:53.561Z,6.23
2023-07-20T19:29:20.612Z,5.70
2023-07-20T19:31:47.443Z,8.07
2023-07-20T19:34:14.081Z,5.07
2023-07-20T19:36:40.730Z,5.10
2023-07-20T19:39:07.410Z,5.87
2023-07-20T19:41:34.044Z,5.23
2023-07-20T19:44:00.584Z,5.63
2023-07-20T19:46:27.834Z,6.30
2023-07-20T19:48:54.861Z,6.93
2023-07-20T19:51:21.711Z,13.87
2023-07-20T19:56:18.135Z,13.43
2023-07-20T19:58:45.094Z,9.10
2023-07-20T20:03:42.011Z,6.83
2023-07-20T20:06:10.918Z,11.57
2023-07-20T20:08:38.305Z,7.87
2023-07-20T20:13:34.963Z,5.93
2023-07-20T20:16:01.807Z,6.70
2023-07-20T20:18:33.485Z,10.83
2023-07-20T20:21:00.479Z,6.53
2023-07-20T20:23:27.143Z,6.40
2023-07-20T20:25:53.987Z,5.30
2023-07-20T20:28:20.655Z,5.87
2023-07-20T20:34:02.973Z,5.30
2023-07-20T20:36:29.595Z,9.53
2023-07-20T20:38:56.230Z,8.50
2023-07-20T20:41:23.198Z,7.70
2023-07-20T20:44:31.204Z,6.97
2023-07-20T20:47:30.892Z,6.30
2023-07-20T20:50:12.662Z,7.47
2023-07-20T20:52:39.619Z,19.13
2023-07-20T20:55:07.136Z,13.07
2023-07-20T20:57:33.877Z,5.97
2023-07-20T21:00:00.448Z,6.33
2023-07-20T21:02:27.361Z,6.77
2023-07-20T21:04:54.326Z,6.10
2023-07-20T21:07:22.037Z,7.60
2023-07-20T21:09:48.886Z,5.40
2023-07-20T21:12:15.569Z,5.93
2023-07-20T21:14:42.936Z,7.37
2023-07-20T21:17:09.707Z,6.60
2023-07-20T21:19:36.378Z,5.40
2023-07-20T21:22:03.045Z,6.37
2023-07-20T21:24:29.961Z,6.00
2023-07-20T21:26:56.548Z,5.40
2023-07-20T21:29:23.753Z,5.30
2023-07-20T21:31:50.479Z,6.63
2023-07-20T21:34:17.415Z,6.27
2023-07-20T21:36:44.355Z,5.67
2023-07-20T21:39:11.111Z,4.83
2023-07-20T21:41:39.417Z,5.97
2023-07-20T21:44:06.297Z,7.70
2023-07-20T21:46:34.614Z,5.73
2023-07-20T21:49:01.396Z,5.53
2023-07-20T21:51:28.478Z,6.03
2023-07-20T21:53:55.060Z,9.17
2023-07-20T21:56:21.787Z,6.00
2023-07-20T21:58:48.469Z,7.10
2023-07-20T22:01:47.680Z,6.80
2023-07-20T22:04:02.531Z,7.63
2023-07-20T22:06:30.029Z,8.13
2023-07-20T22:08:56.754Z,6.50
2023-07-20T22:11:23.426Z,6.97
2023-07-20T22:13:50.698Z,6.13
2023-07-20T22:16:17.480Z,5.70
2023-07-20T22:18:45.565Z,5.93
2023-07-20T22:21:12.860Z,5.93
2023-07-20T22:23:39.649Z,6.17
2023-07-20T22:26:06.374Z,6.23
2023-07-20T22:28:33.079Z,5.80
2023-07-20T22:31:00.855Z,6.50
2023-07-20T22:33:27.682Z,7.20
2023-07-20T22:35:54.647Z,6.20
2023-07-20T22:38:21.413Z,5.47
2023-07-20T22:40:48.084Z,6.10
2023-07-20T22:43:14.685Z,6.63
2023-07-20T22:45:41.432Z,5.40
2023-07-20T22:48:08.265Z,6.03
2023-07-20T22:50:34.878Z,11.77
2023-07-20T22:53:01.412Z,24.93
2023-07-20T22:55:28.339Z,10.10
2023-07-20T22:57:56.225Z,12.70
2023-07-20T23:00:28.653Z,5.60
2023-07-20T23:02:59.594Z,7.20
2023-07-20T23:05:26.928Z,6.60
2023-07-20T23:07:54.198Z,6.20
2023-07-20T23:10:21.618Z,7.17
2023-07-20T23:12:48.365Z,8.10
2023-07-20T23:15:15.779Z,9.17
2023-07-20T23:17:43.061Z,8.00
2023-07-20T23:20:19.010Z,7.60
2023-07-20T23:22:50.689Z,7.40
2023-07-20T23:25:19.058Z,9.50
2023-07-20T23:27:46.535Z,9.00
2023-07-20T23:30:14.940Z,9.70
2023-07-20T23:32:42.514Z,8.80
2023-07-20T23:35:10.153Z,7.60
2023-07-20T23:37:38.017Z,7.50
2023-07-20T23:40:13.913Z,7.30
2023-07-20T23:42:41.785Z,6.83
2023-07-20T23:45:09.949Z,6.43
2023-07-20T23:47:37.667Z,6.40
2023-07-20T23:50:06.348Z,6.50
2023-07-20T23:52:36.249Z,6.40
2023-07-20T23:55:04.553Z,5.77
2023-07-20T23:57:32.320Z,6.80
2023-07-20T23:59:59.739Z,7.20
